createdAt,value
2023-04-30T00:01:00.360Z,13.54
2023-04-30T00:03:27.429Z,13.53
2023-04-30T00:05:54.503Z,13.51
2023-04-30T00:08:21.475Z,13.50
2023-04-30T00:10:48.701Z,13.49
2023-04-30T00:13:15.568Z,13.47
2023-04-30T00:15:42.719Z,13.45
2023-04-30T00:18:09.673Z,13.42
2023-04-30T00:20:36.585Z,13.41
2023-04-30T00:23:03.691Z,13.42
2023-04-30T00:25:30.628Z,13.40
2023-04-30T00:27:57.584Z,13.35
2023-04-30T00:30:24.455Z,13.35
2023-04-30T00:32:51.412Z,13.34
2023-04-30T00:35:18.553Z,13.31
2023-04-30T00:37:45.922Z,13.33
2023-04-30T00:40:13.379Z,13.31
2023-04-30T00:42:40.635Z,13.30
2023-04-30T00:45:08.585Z,13.29
2023-04-30T00:47:35.878Z,13.30
2023-04-30T00:50:02.889Z,13.28
2023-04-30T00:52:29.906Z,13.27
2023-04-30T00:54:57.679Z,13.26
2023-04-30T00:57:25.578Z,13.24
2023-04-30T00:59:53.016Z,13.24
2023-04-30T01:02:20.476Z,13.19
2023-04-30T01:04:47.636Z,13.20
2023-04-30T01:07:14.573Z,13.17
2023-04-30T01:09:41.600Z,13.15
2023-04-30T01:12:20.517Z,13.13
2023-04-30T01:14:59.302Z,13.12
2023-04-30T01:18:08.096Z,13.07
2023-04-30T01:20:39.621Z,13.06
2023-04-30T01:23:36.749Z,13.02
2023-04-30T01:26:59.534Z,12.93
2023-04-30T01:29:28.099Z,12.93
2023-04-30T01:31:54.955Z,12.94
2023-04-30T01:34:24.935Z,12.91
2023-04-30T01:37:29.439Z,12.89
2023-04-30T01:40:11.481Z,12.90
2023-04-30T01:43:12.779Z,12.86
2023-04-30T01:46:16.680Z,12.87
2023-04-30T01:48:56.457Z,12.84
2023-04-30T01:51:38.574Z,12.80
2023-04-30T01:55:00.493Z,12.79
2023-04-30T01:57:42.349Z,12.78
2023-04-30T02:00:13.702Z,12.84
2023-04-30T02:02:41.110Z,12.86
2023-04-30T02:05:08.549Z,12.85
2023-04-30T02:07:44.266Z,12.86
2023-04-30T02:10:14.986Z,12.86
2023-04-30T02:12:41.884Z,12.83
2023-04-30T02:15:09.890Z,12.78
2023-04-30T02:17:37.213Z,12.85
2023-04-30T02:20:04.932Z,12.84
2023-04-30T02:22:31.870Z,12.82
2023-04-30T02:24:59.844Z,12.77
2023-04-30T02:27:27.607Z,12.76
2023-04-30T02:29:54.832Z,12.75
2023-04-30T02:32:22.691Z,12.73
2023-04-30T02:34:50.027Z,12.74
2023-04-30T02:37:17.144Z,12.67
2023-04-30T02:39:44.100Z,12.71
2023-04-30T02:42:11.467Z,12.67
2023-04-30T02:44:38.335Z,12.67
2023-04-30T02:47:05.725Z,12.66
2023-04-30T02:49:32.615Z,12.64
2023-04-30T02:51:59.782Z,12.64
2023-04-30T02:54:26.669Z,12.56
2023-04-30T02:56:53.812Z,12.59
2023-04-30T02:59:21.101Z,12.57
2023-04-30T03:01:48.151Z,12.58
2023-04-30T03:04:15.054Z,12.55
2023-04-30T03:06:41.983Z,12.52
2023-04-30T03:09:09.043Z,12.46
2023-04-30T03:11:37.894Z,12.43
2023-04-30T03:14:08.111Z,12.37
2023-04-30T03:16:35.123Z,12.37
2023-04-30T03:19:02.024Z,12.31
2023-04-30T03:21:29.320Z,12.26
2023-04-30T03:23:56.296Z,12.20
2023-04-30T03:26:23.201Z,12.16
2023-04-30T03:28:50.395Z,12.09
2023-04-30T03:31:17.310Z,12.01
2023-04-30T03:33:44.363Z,11.92
2023-04-30T03:36:11.250Z,11.86
2023-04-30T03:38:38.178Z,11.81
2023-04-30T03:41:05.803Z,11.69
2023-04-30T03:43:32.727Z,11.64
2023-04-30T03:45:59.744Z,11.56
2023-04-30T03:48:27.476Z,11.44
2023-04-30T03:50:54.502Z,11.43
2023-04-30T03:53:21.757Z,11.37
2023-04-30T03:55:50.242Z,11.29
2023-04-30T03:58:17.592Z,11.22
2023-04-30T04:00:46.067Z,11.20
2023-04-30T04:03:13.205Z,11.09
2023-04-30T04:05:40.101Z,11.07
2023-04-30T04:08:08.121Z,11.00
2023-04-30T04:10:35.692Z,10.94
2023-04-30T04:13:02.616Z,10.92
2023-04-30T04:15:29.814Z,10.87
2023-04-30T04:17:56.868Z,10.83
2023-04-30T04:20:23.851Z,10.77
2023-04-30T04:22:51.243Z,10.71
2023-04-30T04:25:18.421Z,10.67
2023-04-30T04:27:45.769Z,10.65
2023-04-30T04:30:13.896Z,10.59
2023-04-30T04:32:46.899Z,10.58
2023-04-30T04:35:19.188Z,10.49
2023-04-30T04:37:46.532Z,10.46
2023-04-30T04:40:13.833Z,10.43
2023-04-30T04:42:40.897Z,10.39
2023-04-30T04:45:08.876Z,10.33
2023-04-30T04:47:36.951Z,10.32
2023-04-30T04:50:04.183Z,10.30
2023-04-30T04:52:31.179Z,10.28
2023-04-30T04:54:58.404Z,10.26
2023-04-30T04:57:25.982Z,10.29
2023-04-30T04:59:53.547Z,10.31
2023-04-30T05:02:21.481Z,10.34
2023-04-30T05:04:50.676Z,10.41
2023-04-30T05:07:18.483Z,10.45
2023-04-30T05:09:49.558Z,10.47
2023-04-30T05:12:16.651Z,10.59
2023-04-30T05:14:44.209Z,10.66
2023-04-30T05:17:11.311Z,10.75
2023-04-30T05:19:38.192Z,10.79
2023-04-30T05:22:05.975Z,10.87
2023-04-30T05:24:33.113Z,10.96
2023-04-30T05:27:00.112Z,11.08
2023-04-30T05:29:26.989Z,11.20
2023-04-30T05:31:54.813Z,11.41
2023-04-30T05:34:21.810Z,11.69
2023-04-30T05:36:48.881Z,11.89
2023-04-30T05:39:15.932Z,12.06
2023-04-30T05:41:42.977Z,12.15
2023-04-30T05:44:09.857Z,12.21
2023-04-30T05:46:37.238Z,12.25
2023-04-30T05:49:04.180Z,12.32
2023-04-30T05:51:31.197Z,12.34
2023-04-30T05:53:58.129Z,12.47
2023-04-30T05:56:25.570Z,12.46
2023-04-30T05:58:53.110Z,12.52
2023-04-30T06:01:21.356Z,12.53
2023-04-30T06:03:48.289Z,12.48
2023-04-30T06:06:15.289Z,12.48
2023-04-30T06:08:45.159Z,12.42
2023-04-30T06:11:13.630Z,12.38
2023-04-30T06:13:41.273Z,12.36
2023-04-30T06:16:08.867Z,12.28
2023-04-30T06:18:36.414Z,12.26
2023-04-30T06:21:03.482Z,12.24
2023-04-30T06:23:30.445Z,12.21
2023-04-30T06:25:57.709Z,12.18
2023-04-30T06:28:24.770Z,12.14
2023-04-30T06:30:52.300Z,12.07
2023-04-30T06:33:19.223Z,12.10
2023-04-30T06:35:46.136Z,12.10
2023-04-30T06:38:13.928Z,12.15
2023-04-30T06:40:41.011Z,12.17
2023-04-30T06:43:08.016Z,12.19
2023-04-30T06:45:35.646Z,12.18
2023-04-30T06:48:02.640Z,12.20
2023-04-30T06:50:29.620Z,12.25
2023-04-30T06:52:56.572Z,12.25
2023-04-30T06:55:23.899Z,12.25
2023-04-30T06:57:54.721Z,12.31
2023-04-30T07:00:21.691Z,12.36
2023-04-30T07:02:52.272Z,12.42
2023-04-30T07:05:19.431Z,12.46
2023-04-30T07:07:46.845Z,12.52
2023-04-30T07:10:13.753Z,12.58
2023-04-30T07:12:40.621Z,12.63
2023-04-30T07:15:08.336Z,12.64
2023-04-30T07:17:35.562Z,12.76
2023-04-30T07:20:02.641Z,12.77
2023-04-30T07:22:29.683Z,12.84
2023-04-30T07:24:56.749Z,12.95
2023-04-30T07:27:24.093Z,13.05
2023-04-30T07:29:52.062Z,13.16
2023-04-30T07:32:18.986Z,13.27
2023-04-30T07:34:45.979Z,13.32
2023-04-30T07:37:13.696Z,13.39
2023-04-30T07:39:41.024Z,13.40
2023-04-30T07:42:07.891Z,13.51
2023-04-30T07:44:34.760Z,13.49
2023-04-30T07:47:01.817Z,13.45
2023-04-30T07:49:29.132Z,13.47
2023-04-30T07:51:56.670Z,13.40
2023-04-30T07:54:23.849Z,13.45
2023-04-30T07:56:50.729Z,13.29
2023-04-30T07:59:17.948Z,13.12
2023-04-30T08:01:45.463Z,12.96
2023-04-30T08:04:12.709Z,12.94
2023-04-30T08:06:39.711Z,12.84
2023-04-30T08:09:06.659Z,12.68
2023-04-30T08:11:33.751Z,12.70
2023-04-30T08:14:00.788Z,12.61
2023-04-30T08:16:27.966Z,12.58
2023-04-30T08:18:54.896Z,12.47
2023-04-30T08:21:21.973Z,12.41
2023-04-30T08:23:49.312Z,12.27
2023-04-30T08:26:16.187Z,12.28
2023-04-30T08:28:43.169Z,12.21
2023-04-30T08:31:10.514Z,12.14
2023-04-30T08:33:37.393Z,12.14
2023-04-30T08:36:04.673Z,12.04
2023-04-30T08:38:31.573Z,12.02
2023-04-30T08:41:11.545Z,12.01
2023-04-30T08:43:38.992Z,12.04
2023-04-30T08:46:06.896Z,12.02
2023-04-30T08:48:34.589Z,12.06
2023-04-30T08:51:04.941Z,12.14
2023-04-30T08:53:35.330Z,12.22
2023-04-30T08:56:03.790Z,12.24
2023-04-30T08:58:31.034Z,12.31
2023-04-30T09:01:00.230Z,12.37
2023-04-30T09:03:28.643Z,12.38
2023-04-30T09:05:56.494Z,12.43
2023-04-30T09:08:47.457Z,12.42
2023-04-30T09:11:30.834Z,12.51
2023-04-30T09:14:00.858Z,12.49
2023-04-30T09:16:46.562Z,12.50
2023-04-30T09:19:30.901Z,12.56
2023-04-30T09:21:58.592Z,12.57
2023-04-30T09:24:25.880Z,12.57
2023-04-30T09:26:54.601Z,12.50
2023-04-30T09:29:21.559Z,12.56
2023-04-30T09:31:48.722Z,12.50
2023-04-30T09:34:16.268Z,12.45
2023-04-30T09:36:57.072Z,12.52
2023-04-30T09:39:24.367Z,12.57
2023-04-30T09:41:52.334Z,12.61
2023-04-30T09:44:40.632Z,12.65
2023-04-30T09:47:16.204Z,12.74
2023-04-30T09:49:46.773Z,12.85
2023-04-30T09:52:16.399Z,12.94
2023-04-30T09:54:45.986Z,13.06
2023-04-30T09:57:15.849Z,13.17
2023-04-30T09:59:47.424Z,13.34
2023-04-30T10:02:17.161Z,13.42
2023-04-30T10:04:45.806Z,13.59
2023-04-30T10:07:25.220Z,13.65
2023-04-30T10:10:00.624Z,13.77
2023-04-30T10:12:48.660Z,13.91
2023-04-30T10:15:21.016Z,14.06
2023-04-30T10:17:58.436Z,14.22
2023-04-30T10:20:27.087Z,14.41
2023-04-30T10:22:54.725Z,14.67
2023-04-30T10:25:23.794Z,14.92
2023-04-30T10:27:52.065Z,15.14
2023-04-30T10:30:19.138Z,15.43
2023-04-30T10:33:16.781Z,15.64
2023-04-30T10:36:04.525Z,15.89
2023-04-30T10:38:32.996Z,16.11
2023-04-30T10:41:04.090Z,16.25
2023-04-30T10:43:31.764Z,16.31
2023-04-30T10:45:59.271Z,16.35
2023-04-30T10:48:27.559Z,16.42
2023-04-30T10:51:01.339Z,16.52
2023-04-30T10:53:32.226Z,16.59
2023-04-30T10:56:09.670Z,16.56
2023-04-30T10:58:41.656Z,16.63
2023-04-30T11:01:15.832Z,16.59
2023-04-30T11:04:07.296Z,16.64
2023-04-30T11:06:52.828Z,16.69
2023-04-30T11:09:21.841Z,16.74
2023-04-30T11:12:04.002Z,16.62
2023-04-30T11:14:34.404Z,16.70
2023-04-30T11:17:02.670Z,16.57
2023-04-30T11:19:34.860Z,16.60
2023-04-30T11:22:04.525Z,16.50
2023-04-30T11:24:59.519Z,16.44
2023-04-30T11:27:32.459Z,16.30
2023-04-30T11:30:00.931Z,16.23
2023-04-30T11:32:37.588Z,16.27
2023-04-30T11:35:06.940Z,16.09
2023-04-30T11:37:38.046Z,16.08
2023-04-30T11:40:11.334Z,16.07
2023-04-30T11:42:40.191Z,16.06
2023-04-30T11:45:13.198Z,16.05
2023-04-30T11:47:49.426Z,16.04
2023-04-30T11:50:19.803Z,16.00
2023-04-30T11:52:53.033Z,15.92
2023-04-30T11:55:22.577Z,15.89
2023-04-30T11:57:53.290Z,15.97
2023-04-30T12:00:27.335Z,15.96
2023-04-30T12:02:55.605Z,15.89
2023-04-30T12:05:28.385Z,15.77
2023-04-30T12:08:06.884Z,15.79
2023-04-30T12:10:34.172Z,15.74
2023-04-30T12:13:01.463Z,15.69
2023-04-30T12:15:29.309Z,15.67
2023-04-30T12:18:00.751Z,15.54
2023-04-30T12:20:31.479Z,15.54
2023-04-30T12:22:58.927Z,15.47
2023-04-30T12:25:29.617Z,15.51
2023-04-30T12:27:59.965Z,15.40
2023-04-30T12:30:27.829Z,15.38
2023-04-30T12:32:58.851Z,15.27
2023-04-30T12:35:29.970Z,15.34
2023-04-30T12:38:08.433Z,15.39
2023-04-30T12:40:35.931Z,15.46
2023-04-30T12:43:08.769Z,15.43
2023-04-30T12:45:48.725Z,15.38
2023-04-30T12:48:16.519Z,15.38
2023-04-30T12:51:01.020Z,15.36
2023-04-30T12:53:28.999Z,15.40
2023-04-30T12:56:15.495Z,15.30
2023-04-30T12:58:50.303Z,15.38
2023-04-30T13:01:23.333Z,15.13
2023-04-30T13:03:51.679Z,15.33
2023-04-30T13:06:18.832Z,15.35
2023-04-30T13:08:58.060Z,15.36
2023-04-30T13:11:27.349Z,15.46
2023-04-30T13:13:57.609Z,15.58
2023-04-30T13:16:25.691Z,15.64
2023-04-30T13:18:53.619Z,15.69
2023-04-30T13:21:21.664Z,15.72
2023-04-30T13:23:52.654Z,15.79
2023-04-30T13:26:20.792Z,15.65
2023-04-30T13:28:47.659Z,15.77
2023-04-30T13:31:14.653Z,15.74
2023-04-30T13:33:41.855Z,15.60
2023-04-30T13:36:08.817Z,15.62
2023-04-30T13:38:35.691Z,15.49
2023-04-30T13:41:02.731Z,15.50
2023-04-30T13:43:29.608Z,15.44
2023-04-30T13:45:56.677Z,15.47
2023-04-30T13:48:23.843Z,15.53
2023-04-30T13:50:52.682Z,15.58
2023-04-30T13:53:20.029Z,15.63
2023-04-30T13:55:46.993Z,15.60
2023-04-30T13:58:14.209Z,15.65
2023-04-30T14:00:41.423Z,15.62
2023-04-30T14:03:08.683Z,15.81
2023-04-30T14:05:36.936Z,15.82
2023-04-30T14:08:05.025Z,15.92
2023-04-30T14:10:33.144Z,16.00
2023-04-30T14:13:00.256Z,15.92
2023-04-30T14:15:30.875Z,15.78
2023-04-30T14:17:58.147Z,15.66
2023-04-30T14:20:25.974Z,15.56
2023-04-30T14:22:53.257Z,15.40
2023-04-30T14:25:20.779Z,15.32
2023-04-30T14:27:47.844Z,15.24
2023-04-30T14:30:17.916Z,15.06
2023-04-30T14:32:44.889Z,15.01
2023-04-30T14:35:11.820Z,14.92
2023-04-30T14:37:38.743Z,14.84
2023-04-30T14:40:08.485Z,14.69
2023-04-30T14:42:35.448Z,14.67
2023-04-30T14:45:02.501Z,14.51
2023-04-30T14:47:29.638Z,14.62
2023-04-30T14:49:59.276Z,14.59
2023-04-30T14:52:26.244Z,14.51
2023-04-30T14:54:53.265Z,14.53
2023-04-30T14:57:20.631Z,14.41
2023-04-30T14:59:47.849Z,14.53
2023-04-30T15:02:15.270Z,14.51
2023-04-30T15:04:46.288Z,14.51
2023-04-30T15:07:13.496Z,14.47
2023-04-30T15:09:40.565Z,14.57
2023-04-30T15:12:07.472Z,14.47
2023-04-30T15:14:34.302Z,14.58
2023-04-30T15:17:01.386Z,14.76
2023-04-30T15:19:28.614Z,14.76
2023-04-30T15:21:55.482Z,14.86
2023-04-30T15:24:22.592Z,15.02
2023-04-30T15:26:51.377Z,15.28
2023-04-30T15:29:18.347Z,15.39
2023-04-30T15:31:45.322Z,15.59
2023-04-30T15:34:12.263Z,15.83
2023-04-30T15:36:39.439Z,15.98
2023-04-30T15:39:06.319Z,16.07
2023-04-30T15:41:33.188Z,16.05
2023-04-30T15:44:00.651Z,16.06
2023-04-30T15:46:27.662Z,15.95
2023-04-30T15:48:54.669Z,15.94
2023-04-30T15:51:21.585Z,15.79
2023-04-30T15:53:48.800Z,15.78
2023-04-30T15:56:18.705Z,15.73
2023-04-30T15:58:45.619Z,15.67
2023-04-30T16:01:13.073Z,15.57
2023-04-30T16:03:40.211Z,15.58
2023-04-30T16:06:07.580Z,15.52
2023-04-30T16:08:34.733Z,15.48
2023-04-30T16:11:01.986Z,15.44
2023-04-30T16:13:29.129Z,15.47
2023-04-30T16:15:56.312Z,15.43
2023-04-30T16:18:23.468Z,15.43
2023-04-30T16:20:50.470Z,15.45
2023-04-30T16:23:17.557Z,15.50
2023-04-30T16:25:45.758Z,15.53
2023-04-30T16:28:12.626Z,15.47
2023-04-30T16:30:39.723Z,15.47
2023-04-30T16:33:07.287Z,15.45
2023-04-30T16:35:34.419Z,15.35
2023-04-30T16:38:02.803Z,15.39
2023-04-30T16:40:29.706Z,15.34
2023-04-30T16:42:56.925Z,15.28
2023-04-30T16:45:23.836Z,15.32
2023-04-30T16:47:51.133Z,15.26
2023-04-30T16:50:19.298Z,15.25
2023-04-30T16:52:46.243Z,15.13
2023-04-30T16:55:14.096Z,15.18
2023-04-30T16:57:41.113Z,15.17
2023-04-30T17:00:12.025Z,15.24
2023-04-30T17:02:41.012Z,15.25
2023-04-30T17:05:11.606Z,15.20
2023-04-30T17:07:38.784Z,15.22
2023-04-30T17:10:06.758Z,15.21
2023-04-30T17:12:33.690Z,15.23
2023-04-30T17:15:00.652Z,15.20
2023-04-30T17:17:27.519Z,15.26
2023-04-30T17:19:54.664Z,15.28
2023-04-30T17:22:21.744Z,15.34
2023-04-30T17:24:49.179Z,15.41
2023-04-30T17:27:16.344Z,15.40
2023-04-30T17:29:43.461Z,15.44
2023-04-30T17:32:11.416Z,15.44
2023-04-30T17:34:38.622Z,15.53
2023-04-30T17:37:06.018Z,15.51
2023-04-30T17:39:32.921Z,15.57
2023-04-30T17:42:00.066Z,15.61
2023-04-30T17:44:27.084Z,15.67
2023-04-30T17:46:54.202Z,15.71
2023-04-30T17:49:21.253Z,15.73
2023-04-30T17:51:48.642Z,15.72
2023-04-30T17:54:15.714Z,15.68
2023-04-30T17:56:42.836Z,15.61
2023-04-30T17:59:09.789Z,15.60
2023-04-30T18:01:38.366Z,15.54
2023-04-30T18:04:08.902Z,15.44
2023-04-30T18:06:36.753Z,15.37
2023-04-30T18:09:04.872Z,15.27
2023-04-30T18:11:32.001Z,15.17
2023-04-30T18:13:58.928Z,15.09
2023-04-30T18:16:25.928Z,15.01
2023-04-30T18:18:52.817Z,14.84
2023-04-30T18:21:19.785Z,14.74
2023-04-30T18:23:47.607Z,14.64
2023-04-30T18:26:14.494Z,14.50
2023-04-30T18:28:42.718Z,14.39
2023-04-30T18:31:09.673Z,14.34
2023-04-30T18:33:36.903Z,14.28
2023-04-30T18:36:06.117Z,14.19
2023-04-30T18:38:34.029Z,14.09
2023-04-30T18:41:02.014Z,14.04
2023-04-30T18:43:28.972Z,13.96
2023-04-30T18:45:56.073Z,13.91
2023-04-30T18:48:23.292Z,13.88
2023-04-30T18:50:50.934Z,13.86
2023-04-30T18:53:18.932Z,13.84
2023-04-30T18:55:46.378Z,13.69
2023-04-30T18:58:13.598Z,13.74
2023-04-30T19:00:43.497Z,13.69
2023-04-30T19:03:10.785Z,13.71
2023-04-30T19:05:38.277Z,13.71
2023-04-30T19:08:05.174Z,13.69
2023-04-30T19:10:34.925Z,13.64
2023-04-30T19:13:02.350Z,13.58
2023-04-30T19:15:30.253Z,13.55
2023-04-30T19:17:58.051Z,13.51
2023-04-30T19:20:25.087Z,13.44
2023-04-30T19:22:52.002Z,13.38
2023-04-30T19:25:18.960Z,13.39
2023-04-30T19:27:47.313Z,13.26
2023-04-30T19:30:14.771Z,13.30
2023-04-30T19:32:42.285Z,13.23
2023-04-30T19:35:09.540Z,13.17
2023-04-30T19:37:36.965Z,13.13
2023-04-30T19:40:10.725Z,13.06
2023-04-30T19:42:39.317Z,13.05
2023-04-30T19:45:09.045Z,12.98
2023-04-30T19:47:36.935Z,12.97
2023-04-30T19:50:04.078Z,12.93
2023-04-30T19:52:30.985Z,12.96
2023-04-30T19:54:58.769Z,12.88
2023-04-30T19:57:26.350Z,12.92
2023-04-30T19:59:53.402Z,12.91
2023-04-30T20:02:20.510Z,12.88
2023-04-30T20:04:47.496Z,12.93
2023-04-30T20:07:14.543Z,12.89
2023-04-30T20:09:41.730Z,12.90
2023-04-30T20:12:08.729Z,12.90
2023-04-30T20:14:36.069Z,12.88
2023-04-30T20:17:03.116Z,12.93
2023-04-30T20:19:30.420Z,12.89
2023-04-30T20:21:57.465Z,12.87
2023-04-30T20:24:24.900Z,12.92
2023-04-30T20:26:51.780Z,12.90
2023-04-30T20:29:20.888Z,12.86
2023-04-30T20:31:48.073Z,12.86
2023-04-30T20:34:14.996Z,12.82
2023-04-30T20:36:41.879Z,12.86
2023-04-30T20:39:09.163Z,12.82
2023-04-30T20:41:36.458Z,12.77
2023-04-30T20:44:03.330Z,12.72
2023-04-30T20:46:32.408Z,12.71
2023-04-30T20:49:04.245Z,12.68
2023-04-30T20:51:31.656Z,12.61
2023-04-30T20:53:58.564Z,12.58
2023-04-30T20:56:26.180Z,12.50
2023-04-30T20:58:54.086Z,12.50
2023-04-30T21:01:21.125Z,12.47
2023-04-30T21:03:49.492Z,12.39
2023-04-30T21:06:17.990Z,12.36
2023-04-30T21:08:44.978Z,12.33
2023-04-30T21:11:14.340Z,12.26
2023-04-30T21:13:41.956Z,12.16
2023-04-30T21:16:09.082Z,12.15
2023-04-30T21:18:35.992Z,12.10
2023-04-30T21:21:05.170Z,12.10
2023-04-30T21:23:32.944Z,12.09
2023-04-30T21:25:59.891Z,12.07
2023-04-30T21:28:27.054Z,12.06
2023-04-30T21:30:54.104Z,12.02
2023-04-30T21:33:21.216Z,12.01
2023-04-30T21:35:48.103Z,12.02
2023-04-30T21:38:15.005Z,11.98
2023-04-30T21:40:43.541Z,11.97
2023-04-30T21:43:10.424Z,12.00
2023-04-30T21:45:37.331Z,12.00
2023-04-30T21:48:05.858Z,12.02
2023-04-30T21:50:34.040Z,12.01
2023-04-30T21:53:03.471Z,12.05
2023-04-30T21:55:30.842Z,12.02
2023-04-30T21:57:57.922Z,12.10
2023-04-30T22:00:25.536Z,12.07
2023-04-30T22:02:52.519Z,12.11
2023-04-30T22:05:22.667Z,12.12
2023-04-30T22:07:49.690Z,12.08
2023-04-30T22:10:16.594Z,12.14
2023-04-30T22:12:47.183Z,12.14
2023-04-30T22:15:15.451Z,12.15
2023-04-30T22:17:42.533Z,12.16
2023-04-30T22:20:10.279Z,12.15
2023-04-30T22:22:37.254Z,12.17
2023-04-30T22:25:04.986Z,12.15
2023-04-30T22:27:32.326Z,12.13
2023-04-30T22:29:59.328Z,12.07
2023-04-30T22:32:26.538Z,12.11
2023-04-30T22:34:53.598Z,12.08
2023-04-30T22:37:20.528Z,12.06
2023-04-30T22:39:48.622Z,12.08
2023-04-30T22:42:17.099Z,12.03
2023-04-30T22:44:45.609Z,12.06
2023-04-30T22:47:12.770Z,12.03
2023-04-30T22:49:39.848Z,12.02
2023-04-30T22:52:07.544Z,11.97
2023-04-30T22:54:35.906Z,11.94
2023-04-30T22:57:03.300Z,11.94
2023-04-30T22:59:30.250Z,11.88
2023-04-30T23:01:57.451Z,11.93
2023-04-30T23:04:26.173Z,11.94
2023-04-30T23:06:53.660Z,11.90
2023-04-30T23:09:20.523Z,11.87
2023-04-30T23:11:48.501Z,11.87
2023-04-30T23:14:15.513Z,11.84
2023-04-30T23:16:43.140Z,11.81
2023-04-30T23:19:10.577Z,11.81
2023-04-30T23:21:38.035Z,11.76
2023-04-30T23:24:05.326Z,11.77
2023-04-30T23:26:32.239Z,11.70
2023-04-30T23:28:59.629Z,11.64
2023-04-30T23:31:27.449Z,11.62
2023-04-30T23:33:54.520Z,11.55
2023-04-30T23:36:21.442Z,11.48
2023-04-30T23:38:48.332Z,11.41
2023-04-30T23:41:15.757Z,11.35
2023-04-30T23:43:42.635Z,11.27
2023-04-30T23:46:09.841Z,11.20
2023-04-30T23:48:36.965Z,11.15
2023-04-30T23:51:06.031Z,11.06
2023-04-30T23:53:32.904Z,11.00
2023-04-30T23:56:00.518Z,10.95
2023-04-30T23:58:31.840Z,10.87
